createdAt,value
2019-03-21T00:01:02.253Z,95.92
2019-03-21T00:03:32.847Z,96.17
2019-03-21T00:06:04.396Z,95.99
2019-03-21T00:08:35.243Z,95.85
2019-03-21T00:11:48.260Z,96.58
2019-03-21T00:14:45.591Z,96.34
2019-03-21T00:17:17.347Z,96.67
2019-03-21T00:19:47.963Z,96.46
2019-03-21T00:22:18.646Z,97.01
2019-03-21T00:24:49.219Z,96.86
2019-03-21T00:27:19.921Z,96.42
2019-03-21T00:29:50.505Z,96.63
2019-03-21T00:32:21.131Z,96.32
2019-03-21T00:34:51.799Z,96.98
2019-03-21T00:37:22.405Z,96.57
2019-03-21T00:39:53.081Z,96.52
2019-03-21T00:42:23.710Z,96.20
2019-03-21T00:44:54.343Z,96.37
2019-03-21T00:47:24.990Z,96.41
2019-03-21T00:49:55.685Z,96.76
2019-03-21T00:52:26.365Z,96.27
2019-03-21T00:54:57.238Z,96.45
2019-03-21T00:57:28.026Z,96.04
2019-03-21T01:00:00.398Z,96.26
2019-03-21T01:02:31.087Z,95.96
2019-03-21T01:05:01.754Z,95.70
2019-03-21T01:07:32.472Z,96.01
2019-03-21T01:10:03.215Z,96.80
2019-03-21T01:12:33.990Z,96.45
2019-03-21T01:15:04.640Z,96.65
2019-03-21T01:17:35.706Z,96.75
2019-03-21T01:20:07.864Z,96.45
2019-03-21T01:22:38.533Z,96.32
2019-03-21T01:25:11.509Z,96.66
2019-03-21T01:27:42.215Z,96.18
2019-03-21T01:30:14.264Z,96.16
2019-03-21T01:32:45.002Z,95.87
2019-03-21T01:35:16.282Z,95.71
2019-03-21T01:37:46.936Z,95.32
2019-03-21T01:40:20.210Z,94.98
2019-03-21T01:42:50.782Z,95.58
2019-03-21T01:45:22.724Z,95.94
2019-03-21T01:47:53.972Z,95.85
2019-03-21T01:50:24.902Z,95.48
2019-03-21T01:52:55.576Z,96.11
2019-03-21T01:55:26.252Z,96.02
2019-03-21T01:57:56.949Z,95.92
2019-03-21T02:00:30.388Z,95.03
2019-03-21T02:03:01.070Z,95.13
2019-03-21T02:05:32.002Z,95.51
2019-03-21T02:08:02.719Z,95.86
2019-03-21T02:10:33.354Z,95.98
2019-03-21T02:13:03.946Z,95.54
2019-03-21T02:15:34.664Z,94.95
2019-03-21T02:18:05.461Z,94.87
2019-03-21T02:20:36.132Z,95.13
2019-03-21T02:23:06.886Z,94.93
2019-03-21T02:25:37.574Z,95.24
2019-03-21T02:28:08.302Z,95.04
2019-03-21T02:30:38.882Z,95.21
2019-03-21T02:33:16.123Z,94.81
2019-03-21T02:35:46.747Z,94.99
2019-03-21T02:38:17.347Z,95.01
2019-03-21T02:40:47.966Z,95.34
2019-03-21T02:43:18.543Z,95.51
2019-03-21T02:45:49.377Z,95.15
2019-03-21T02:48:19.939Z,95.21
2019-03-21T02:50:50.621Z,94.77
2019-03-21T02:53:21.213Z,95.02
2019-03-21T02:55:51.902Z,94.87
2019-03-21T02:58:22.574Z,94.64
2019-03-21T03:00:53.160Z,95.18
2019-03-21T03:03:23.799Z,95.13
2019-03-21T03:05:54.460Z,95.27
2019-03-21T03:08:25.105Z,95.06
2019-03-21T03:10:55.930Z,94.87
2019-03-21T03:13:26.555Z,94.76
2019-03-21T03:15:57.134Z,94.88
2019-03-21T03:18:27.729Z,95.31
2019-03-21T03:20:58.325Z,94.87
2019-03-21T03:23:29.034Z,95.09
2019-03-21T03:25:59.652Z,95.07
2019-03-21T03:28:30.304Z,95.04
2019-03-21T03:31:02.394Z,95.51
2019-03-21T03:33:32.974Z,94.90
2019-03-21T03:36:03.675Z,95.03
2019-03-21T03:38:34.294Z,95.16
2019-03-21T03:41:05.906Z,95.37
2019-03-21T03:43:36.497Z,95.06
2019-03-21T03:46:07.109Z,95.38
2019-03-21T03:48:37.683Z,95.14
2019-03-21T03:51:08.273Z,95.19
2019-03-21T03:53:42.272Z,94.90
2019-03-21T03:56:11.146Z,94.78
2019-03-21T03:58:42.981Z,94.58
2019-03-21T04:01:13.794Z,94.64
2019-03-21T04:03:44.481Z,94.78
2019-03-21T04:06:15.169Z,95.07
2019-03-21T04:08:45.812Z,95.01
2019-03-21T04:11:16.390Z,94.97
2019-03-21T04:13:46.987Z,94.59
2019-03-21T04:16:17.593Z,94.48
2019-03-21T04:18:48.215Z,94.68
2019-03-21T04:21:18.833Z,94.59
2019-03-21T04:23:49.438Z,94.80
2019-03-21T04:26:26.335Z,94.68
2019-03-21T04:28:56.875Z,94.21
2019-03-21T04:31:27.453Z,94.03
2019-03-21T04:33:59.911Z,93.92
2019-03-21T04:36:30.500Z,94.23
2019-03-21T04:39:01.900Z,94.43
2019-03-21T04:41:32.462Z,94.06
2019-03-21T04:44:03.146Z,94.06
2019-03-21T04:46:33.720Z,94.12
2019-03-21T04:49:04.462Z,94.45
2019-03-21T04:51:35.106Z,94.54
2019-03-21T04:54:05.772Z,94.03
2019-03-21T04:56:36.329Z,93.95
2019-03-21T04:59:06.993Z,94.25
2019-03-21T05:01:37.543Z,93.67
2019-03-21T05:04:08.151Z,93.78
2019-03-21T05:06:38.744Z,93.80
2019-03-21T05:09:12.829Z,93.87
2019-03-21T05:11:43.412Z,93.98
2019-03-21T05:14:14.113Z,94.03
2019-03-21T05:16:44.709Z,94.05
2019-03-21T05:19:15.607Z,94.21
2019-03-21T05:21:46.807Z,94.09
2019-03-21T05:24:17.436Z,94.50
2019-03-21T05:26:48.041Z,94.69
2019-03-21T05:29:18.646Z,94.68
2019-03-21T05:31:49.259Z,95.31
2019-03-21T05:34:19.941Z,95.28
2019-03-21T05:36:50.651Z,95.17
2019-03-21T05:39:21.301Z,95.49
2019-03-21T05:41:51.873Z,95.37
2019-03-21T05:44:32.478Z,95.26
2019-03-21T05:47:03.074Z,95.33
2019-03-21T05:49:33.713Z,95.85
2019-03-21T05:52:04.303Z,96.06
2019-03-21T05:54:34.905Z,95.80
2019-03-21T05:57:05.491Z,95.85
2019-03-21T05:59:36.125Z,95.38
2019-03-21T06:02:06.734Z,95.07
2019-03-21T06:04:37.478Z,94.61
2019-03-21T06:07:38.439Z,94.52
2019-03-21T06:10:12.885Z,95.06
2019-03-21T06:12:46.609Z,94.88
2019-03-21T06:15:20.509Z,95.05
2019-03-21T06:18:19.982Z,94.84
2019-03-21T06:21:02.666Z,94.78
2019-03-21T06:23:58.147Z,95.42
2019-03-21T06:26:36.710Z,94.74
2019-03-21T06:29:07.353Z,94.94
2019-03-21T06:31:37.916Z,94.67
2019-03-21T06:34:08.511Z,95.35
2019-03-21T06:36:39.097Z,95.23
2019-03-21T06:39:10.176Z,95.27
2019-03-21T06:41:40.776Z,95.07
2019-03-21T06:44:11.374Z,95.21
2019-03-21T06:46:49.482Z,94.98
2019-03-21T06:49:14.304Z,94.98
2019-03-21T06:51:44.995Z,95.55
2019-03-21T06:54:15.622Z,94.85
2019-03-21T06:56:46.194Z,94.33
2019-03-21T06:59:16.820Z,94.46
2019-03-21T07:01:47.561Z,94.53
2019-03-21T07:04:18.245Z,94.60
2019-03-21T07:06:48.938Z,95.04
2019-03-21T07:09:19.619Z,94.58
2019-03-21T07:11:50.261Z,94.44
2019-03-21T07:14:20.976Z,94.36
2019-03-21T07:17:00.085Z,94.37
2019-03-21T07:19:23.853Z,94.26
2019-03-21T07:21:54.446Z,94.28
2019-03-21T07:24:25.128Z,94.47
2019-03-21T07:26:55.714Z,94.67
2019-03-21T07:29:26.320Z,94.58
2019-03-21T07:31:56.902Z,94.31
2019-03-21T07:34:27.526Z,94.08
2019-03-21T07:36:58.241Z,93.99
2019-03-21T07:39:28.933Z,93.83
2019-03-21T07:42:01.185Z,93.64
2019-03-21T07:44:31.758Z,93.56
2019-03-21T07:47:12.196Z,93.01
2019-03-21T07:49:34.766Z,92.90
2019-03-21T07:52:05.387Z,93.03
2019-03-21T07:54:35.986Z,92.64
2019-03-21T07:57:06.594Z,92.45
2019-03-21T07:59:37.196Z,92.71
2019-03-21T08:02:07.816Z,92.47
2019-03-21T08:04:38.423Z,92.15
2019-03-21T08:07:09.045Z,91.96
2019-03-21T08:09:39.750Z,91.80
2019-03-21T08:12:10.476Z,91.85
2019-03-21T08:14:41.116Z,91.61
2019-03-21T08:17:11.724Z,91.42
2019-03-21T08:19:42.288Z,91.33
2019-03-21T08:22:12.946Z,91.46
2019-03-21T08:24:43.557Z,91.66
2019-03-21T08:27:14.160Z,91.56
2019-03-21T08:29:44.746Z,91.57
2019-03-21T08:32:15.389Z,91.08
2019-03-21T08:34:46.036Z,91.35
2019-03-21T08:37:16.642Z,91.00
2019-03-21T08:39:47.223Z,91.00
2019-03-21T08:42:17.822Z,91.04
2019-03-21T08:44:48.489Z,90.88
2019-03-21T08:47:19.062Z,90.75
2019-03-21T08:49:49.725Z,90.55
2019-03-21T08:52:20.467Z,90.59
2019-03-21T08:54:51.044Z,90.22
2019-03-21T08:57:21.762Z,90.20
2019-03-21T08:59:52.467Z,90.27
2019-03-21T09:02:23.091Z,90.00
2019-03-21T09:04:53.696Z,89.48
2019-03-21T09:07:24.362Z,89.48
2019-03-21T09:09:55.000Z,89.86
2019-03-21T09:12:25.676Z,89.49
2019-03-21T09:14:56.247Z,89.63
2019-03-21T09:17:26.827Z,89.63
2019-03-21T09:19:58.347Z,90.15
2019-03-21T09:22:28.983Z,90.15
2019-03-21T09:24:59.573Z,89.93
2019-03-21T09:27:30.275Z,89.75
2019-03-21T09:30:00.907Z,89.57
2019-03-21T09:32:31.557Z,89.77
2019-03-21T09:35:02.152Z,89.50
2019-03-21T09:37:32.751Z,90.08
2019-03-21T09:40:03.309Z,89.50
2019-03-21T09:42:33.904Z,89.50
2019-03-21T09:45:05.147Z,89.46
2019-03-21T09:47:35.847Z,89.46
2019-03-21T09:50:07.297Z,89.15
2019-03-21T09:52:38.661Z,88.73
2019-03-21T09:55:10.958Z,88.52
2019-03-21T09:57:43.253Z,88.63
2019-03-21T10:00:18.638Z,88.14
2019-03-21T10:02:50.965Z,88.07
2019-03-21T10:05:39.529Z,87.89
2019-03-21T10:08:11.859Z,87.81
2019-03-21T10:10:44.165Z,87.81
2019-03-21T10:13:32.583Z,88.19
2019-03-21T10:16:21.517Z,87.86
2019-03-21T10:19:10.257Z,88.14
2019-03-21T10:21:58.875Z,88.08
2019-03-21T10:24:46.135Z,88.07
2019-03-21T10:27:15.965Z,87.84
2019-03-21T10:29:46.645Z,87.59
2019-03-21T10:32:17.261Z,87.57
2019-03-21T10:34:47.963Z,87.57
2019-03-21T10:37:18.591Z,87.84
2019-03-21T10:39:49.199Z,87.77
2019-03-21T10:42:19.841Z,87.30
2019-03-21T10:44:50.447Z,87.49
2019-03-21T10:47:21.503Z,87.24
2019-03-21T10:49:52.116Z,87.18
2019-03-21T10:52:22.703Z,87.18
2019-03-21T10:54:53.306Z,87.31
2019-03-21T10:57:23.932Z,87.16
2019-03-21T10:59:54.560Z,87.00
2019-03-21T11:02:25.117Z,86.91
2019-03-21T11:04:55.773Z,87.00
2019-03-21T11:07:24.213Z,86.81
2019-03-21T11:09:54.871Z,86.63
2019-03-21T11:12:25.462Z,86.85
2019-03-21T11:14:56.092Z,86.85
2019-03-21T11:17:26.688Z,86.64
2019-03-21T11:19:57.303Z,86.27
2019-03-21T11:22:27.863Z,86.18
2019-03-21T11:24:58.457Z,86.20
2019-03-21T11:27:29.073Z,86.09
2019-03-21T11:29:59.701Z,86.09
2019-03-21T11:32:30.273Z,85.70
2019-03-21T11:35:00.929Z,85.54
2019-03-21T11:37:31.479Z,85.34
2019-03-21T11:40:02.096Z,85.44
2019-03-21T11:42:32.685Z,85.37
2019-03-21T11:45:03.331Z,85.24
2019-03-21T11:47:41.796Z,85.01
2019-03-21T11:50:06.564Z,84.90
2019-03-21T11:52:37.138Z,84.87
2019-03-21T11:55:08.062Z,84.86
2019-03-21T11:57:38.614Z,84.81
2019-03-21T12:00:09.840Z,84.32
2019-03-21T12:02:40.410Z,84.20
2019-03-21T12:05:11.164Z,84.20
2019-03-21T12:07:41.728Z,84.31
2019-03-21T12:10:12.542Z,84.25
2019-03-21T12:12:43.295Z,84.61
2019-03-21T12:15:14.012Z,84.15
2019-03-21T12:17:44.614Z,84.12
2019-03-21T12:20:17.839Z,83.84
2019-03-21T12:22:48.385Z,83.71
2019-03-21T12:25:19.006Z,83.44
2019-03-21T12:27:49.577Z,83.41
2019-03-21T12:30:29.084Z,83.05
2019-03-21T12:32:58.932Z,83.19
2019-03-21T12:35:29.552Z,83.07
2019-03-21T12:38:00.144Z,83.29
2019-03-21T12:40:30.835Z,83.17
2019-03-21T12:43:01.400Z,82.69
2019-03-21T12:45:32.014Z,83.37
2019-03-21T12:48:02.604Z,83.02
2019-03-21T12:50:33.319Z,82.54
2019-03-21T12:53:03.985Z,82.72
2019-03-21T12:55:34.614Z,82.55
2019-03-21T12:58:05.211Z,82.58
2019-03-21T13:00:40.428Z,82.25
2019-03-21T13:03:10.972Z,82.27
2019-03-21T13:05:41.612Z,81.93
2019-03-21T13:08:12.182Z,82.14
2019-03-21T13:10:43.191Z,81.58
2019-03-21T13:13:13.842Z,81.90
2019-03-21T13:15:44.434Z,81.89
2019-03-21T13:18:15.044Z,81.61
2019-03-21T13:20:46.106Z,81.69
2019-03-21T13:23:16.802Z,81.87
2019-03-21T13:25:47.528Z,81.73
2019-03-21T13:28:18.123Z,81.64
2019-03-21T13:30:48.700Z,81.47
2019-03-21T13:33:19.332Z,81.12
2019-03-21T13:35:50.172Z,81.03
2019-03-21T13:38:20.830Z,81.25
2019-03-21T13:40:51.528Z,81.33
2019-03-21T13:43:22.823Z,81.51
2019-03-21T13:45:53.481Z,81.42
2019-03-21T13:48:24.100Z,81.03
2019-03-21T13:50:54.700Z,80.92
2019-03-21T13:53:25.337Z,80.53
2019-03-21T13:55:55.925Z,81.00
2019-03-21T13:58:27.027Z,80.94
2019-03-21T14:00:57.639Z,81.00
2019-03-21T14:03:28.324Z,80.57
2019-03-21T14:05:59.067Z,80.74
2019-03-21T14:08:29.777Z,80.85
2019-03-21T14:11:00.381Z,80.62
2019-03-21T14:13:31.000Z,80.77
2019-03-21T14:16:01.567Z,80.42
2019-03-21T14:18:32.241Z,80.76
2019-03-21T14:21:02.820Z,80.85
2019-03-21T14:23:42.740Z,80.83
2019-03-21T14:26:05.892Z,80.69
2019-03-21T14:28:36.489Z,80.48
2019-03-21T14:31:07.409Z,80.36
2019-03-21T14:33:38.137Z,80.19
2019-03-21T14:36:08.737Z,80.44
2019-03-21T14:38:39.343Z,80.39
2019-03-21T14:41:10.020Z,80.50
2019-03-21T14:43:42.342Z,80.73
2019-03-21T14:46:13.046Z,80.50
2019-03-21T14:48:44.033Z,80.47
2019-03-21T14:51:14.863Z,80.15
2019-03-21T14:53:45.566Z,80.25
2019-03-21T14:56:16.211Z,80.06
2019-03-21T14:58:46.915Z,80.35
2019-03-21T15:01:17.609Z,80.08
2019-03-21T15:03:48.436Z,80.07
2019-03-21T15:06:19.001Z,80.34
2019-03-21T15:08:49.615Z,80.37
2019-03-21T15:11:20.160Z,80.36
2019-03-21T15:13:50.760Z,80.11
2019-03-21T15:16:21.451Z,79.93
2019-03-21T15:18:55.117Z,79.89
2019-03-21T15:21:25.687Z,79.83
2019-03-21T15:23:59.733Z,80.00
2019-03-21T15:26:28.723Z,79.69
2019-03-21T15:29:17.392Z,79.64
2019-03-21T15:32:05.830Z,79.66
2019-03-21T15:34:37.547Z,79.95
2019-03-21T15:37:08.141Z,80.14
2019-03-21T15:39:39.145Z,80.40
2019-03-21T15:42:09.801Z,79.93
2019-03-21T15:44:39.619Z,79.82
2019-03-21T15:47:10.269Z,79.63
2019-03-21T15:49:40.902Z,79.39
2019-03-21T15:52:11.500Z,79.47
2019-03-21T15:54:42.099Z,79.17
2019-03-21T15:57:12.685Z,79.33
2019-03-21T15:59:43.340Z,79.93
2019-03-21T16:02:13.935Z,79.91
2019-03-21T16:04:44.581Z,79.35
2019-03-21T16:07:15.169Z,80.38
2019-03-21T16:09:45.749Z,80.11
2019-03-21T16:12:16.439Z,79.86
2019-03-21T16:14:49.199Z,79.81
2019-03-21T16:17:19.369Z,79.78
2019-03-21T16:19:49.984Z,80.33
2019-03-21T16:22:20.585Z,80.02
2019-03-21T16:24:51.213Z,80.00
2019-03-21T16:27:21.837Z,80.01
2019-03-21T16:29:52.391Z,79.88
2019-03-21T16:32:22.983Z,80.04
2019-03-21T16:34:53.591Z,80.09
2019-03-21T16:37:24.268Z,79.72
2019-03-21T16:39:54.833Z,80.07
2019-03-21T16:42:25.448Z,80.20
2019-03-21T16:44:56.023Z,80.61
2019-03-21T16:47:26.639Z,80.43
2019-03-21T16:49:57.311Z,80.17
2019-03-21T16:52:28.000Z,80.11
2019-03-21T16:54:58.568Z,79.98
2019-03-21T16:57:29.214Z,80.01
2019-03-21T16:59:59.867Z,79.83
2019-03-21T17:02:30.550Z,79.82
2019-03-21T17:05:01.169Z,79.62
2019-03-21T17:07:31.811Z,79.98
2019-03-21T17:10:02.403Z,79.54
2019-03-21T17:12:33.032Z,79.77
2019-03-21T17:15:03.604Z,79.96
2019-03-21T17:17:34.291Z,80.29
2019-03-21T17:20:05.478Z,80.22
2019-03-21T17:22:36.071Z,80.33
2019-03-21T17:25:07.353Z,80.30
2019-03-21T17:27:38.543Z,80.24
2019-03-21T17:30:09.276Z,79.70
2019-03-21T17:32:39.864Z,79.46
2019-03-21T17:35:10.581Z,79.57
2019-03-21T17:37:41.203Z,79.78
2019-03-21T17:40:11.945Z,80.14
2019-03-21T17:42:42.618Z,80.04
2019-03-21T17:45:14.695Z,80.27
2019-03-21T17:47:45.316Z,79.94
2019-03-21T17:50:16.722Z,80.15
2019-03-21T17:52:47.339Z,80.02
2019-03-21T17:55:17.954Z,79.77
2019-03-21T17:57:48.628Z,80.34
2019-03-21T18:00:21.211Z,79.77
2019-03-21T18:02:51.938Z,79.73
2019-03-21T18:05:22.547Z,80.47
2019-03-21T18:07:53.226Z,80.69
2019-03-21T18:10:28.748Z,80.48
2019-03-21T18:12:59.385Z,80.02
2019-03-21T18:15:30.235Z,80.05
2019-03-21T18:18:02.731Z,80.31
2019-03-21T18:20:33.319Z,80.39
2019-03-21T18:23:03.963Z,80.56
2019-03-21T18:25:34.550Z,80.25
2019-03-21T18:28:05.145Z,80.69
2019-03-21T18:30:35.734Z,80.94
2019-03-21T18:33:06.429Z,81.17
2019-03-21T18:35:37.037Z,81.22
2019-03-21T18:38:07.657Z,81.51
2019-03-21T18:40:38.246Z,80.91
2019-03-21T18:43:08.849Z,81.11
2019-03-21T18:45:39.440Z,81.35
2019-03-21T18:48:10.050Z,81.92
2019-03-21T18:50:40.635Z,81.13
2019-03-21T18:53:11.322Z,80.84
2019-03-21T18:55:41.898Z,80.92
2019-03-21T18:58:12.531Z,80.96
2019-03-21T19:00:43.401Z,80.88
2019-03-21T19:03:13.996Z,80.85
2019-03-21T19:05:44.650Z,81.34
2019-03-21T19:08:15.238Z,81.46
2019-03-21T19:10:45.829Z,81.70
2019-03-21T19:13:16.460Z,81.81
2019-03-21T19:15:47.080Z,81.73
2019-03-21T19:18:17.633Z,81.77
2019-03-21T19:20:48.277Z,81.78
2019-03-21T19:23:18.870Z,81.31
2019-03-21T19:25:49.434Z,81.40
2019-03-21T19:28:20.013Z,81.32
2019-03-21T19:30:50.600Z,81.68
2019-03-21T19:33:21.192Z,81.63
2019-03-21T19:35:51.799Z,81.49
2019-03-21T19:38:23.863Z,81.57
2019-03-21T19:40:54.653Z,81.55
2019-03-21T19:43:25.428Z,81.99
2019-03-21T19:45:56.130Z,82.22
2019-03-21T19:48:26.713Z,81.97
2019-03-21T19:50:57.329Z,82.51
2019-03-21T19:53:29.019Z,81.92
2019-03-21T19:56:08.341Z,82.29
2019-03-21T19:58:32.043Z,82.20
2019-03-21T20:01:02.881Z,82.33
2019-03-21T20:03:33.449Z,82.05
2019-03-21T20:06:04.110Z,82.22
2019-03-21T20:08:34.689Z,81.81
2019-03-21T20:11:05.295Z,81.73
2019-03-21T20:13:35.878Z,81.66
2019-03-21T20:16:06.525Z,82.17
2019-03-21T20:18:37.121Z,82.01
2019-03-21T20:21:07.730Z,81.62
2019-03-21T20:23:38.311Z,81.45
2019-03-21T20:26:08.943Z,81.51
2019-03-21T20:28:39.547Z,81.52
2019-03-21T20:31:10.211Z,81.77
2019-03-21T20:33:40.803Z,82.62
2019-03-21T20:36:11.397Z,83.14
2019-03-21T20:38:42.009Z,84.17
2019-03-21T20:41:12.658Z,84.15
2019-03-21T20:43:43.233Z,84.10
2019-03-21T20:46:13.871Z,84.48
2019-03-21T20:48:42.307Z,83.93
2019-03-21T20:51:13.276Z,84.24
2019-03-21T20:53:43.919Z,84.04
2019-03-21T20:56:14.560Z,84.06
2019-03-21T20:58:45.187Z,83.42
2019-03-21T21:01:15.813Z,83.53
2019-03-21T21:03:46.429Z,83.25
2019-03-21T21:06:17.093Z,83.18
2019-03-21T21:08:47.801Z,83.75
2019-03-21T21:11:18.420Z,83.82
2019-03-21T21:13:49.058Z,83.40
2019-03-21T21:16:19.749Z,83.51
2019-03-21T21:18:50.314Z,83.45
2019-03-21T21:21:20.936Z,84.49
2019-03-21T21:23:51.611Z,83.71
2019-03-21T21:26:22.257Z,84.51
2019-03-21T21:28:52.857Z,85.12
2019-03-21T21:31:23.458Z,85.12
2019-03-21T21:33:54.099Z,84.27
2019-03-21T21:36:24.739Z,84.66
2019-03-21T21:38:55.412Z,85.11
2019-03-21T21:41:26.059Z,84.79
2019-03-21T21:43:56.741Z,85.94
2019-03-21T21:46:27.307Z,85.53
2019-03-21T21:48:57.940Z,85.85
2019-03-21T21:51:28.539Z,85.39
2019-03-21T21:53:59.158Z,84.72
2019-03-21T21:56:29.711Z,85.38
2019-03-21T21:59:00.293Z,85.02
2019-03-21T22:01:30.955Z,84.76
2019-03-21T22:04:04.859Z,85.10
2019-03-21T22:06:34.995Z,85.50
2019-03-21T22:09:08.019Z,85.15
2019-03-21T22:11:38.601Z,85.45
2019-03-21T22:14:09.251Z,85.09
2019-03-21T22:16:39.860Z,85.25
2019-03-21T22:19:10.517Z,85.25
2019-03-21T22:21:41.117Z,85.05
2019-03-21T22:24:11.750Z,84.64
2019-03-21T22:26:42.413Z,84.69
2019-03-21T22:29:13.035Z,85.02
2019-03-21T22:31:43.638Z,84.37
2019-03-21T22:34:14.347Z,84.12
2019-03-21T22:36:49.552Z,83.49
2019-03-21T22:39:17.285Z,83.66
2019-03-21T22:41:47.910Z,84.12
2019-03-21T22:44:18.546Z,83.61
2019-03-21T22:46:49.110Z,85.00
2019-03-21T22:49:19.783Z,84.46
2019-03-21T22:51:50.390Z,84.45
2019-03-21T22:54:21.096Z,84.68
2019-03-21T22:56:51.704Z,84.87
2019-03-21T22:59:22.415Z,84.72
2019-03-21T23:01:56.111Z,84.01
2019-03-21T23:04:26.773Z,83.90
2019-03-21T23:06:57.386Z,83.96
2019-03-21T23:09:28.009Z,83.95
2019-03-21T23:11:58.641Z,83.58
2019-03-21T23:14:29.367Z,84.58
2019-03-21T23:16:59.939Z,84.58
2019-03-21T23:19:30.575Z,84.58
2019-03-21T23:22:01.209Z,84.58
2019-03-21T23:24:31.806Z,84.96
2019-03-21T23:27:02.438Z,85.38
2019-03-21T23:29:33.048Z,84.61
2019-03-21T23:32:03.622Z,84.51
2019-03-21T23:34:34.303Z,84.51
2019-03-21T23:37:04.966Z,84.65
2019-03-21T23:39:35.712Z,85.00
2019-03-21T23:42:06.383Z,85.09
2019-03-21T23:44:37.047Z,84.66
2019-03-21T23:47:07.734Z,84.48
2019-03-21T23:49:38.378Z,84.20
2019-03-21T23:52:08.984Z,84.08
2019-03-21T23:54:39.587Z,84.17
2019-03-21T23:57:10.186Z,84.05
2019-03-21T23:59:40.826Z,84.55
